sensor_id;sensor_type;location;lat;lon;timestamp;temperature;humidity
2967;DHT22;1493;51.496;7.210;2023-04-24T00:01:57;12.00;1.00
2967;DHT22;1493;51.496;7.210;2023-04-24T00:04:24;12.10;1.00
2967;DHT22;1493;51.496;7.210;2023-04-24T00:06:52;12.10;1.00
2967;DHT22;1493;51.496;7.210;2023-04-24T00:09:23;12.00;1.00
2967;DHT22;1493;51.496;7.210;2023-04-24T00:11:50;11.90;1.00
2967;DHT22;1493;51.496;7.210;2023-04-24T00:14:19;11.90;1.00
2967;DHT22;1493;51.496;7.210;2023-04-24T00:16:46;11.90;1.00
2967;DHT22;1493;51.496;7.210;2023-04-24T00:19:13;11.90;1.00
2967;DHT22;1493;51.496;7.210;2023-04-24T00:21:40;11.80;1.00
2967;DHT22;1493;51.496;7.210;2023-04-24T00:24:07;11.70;1.00
2967;DHT22;1493;51.496;7.210;2023-04-24T00:26:36;11.60;1.00
2967;DHT22;1493;51.496;7.210;2023-04-24T00:29:03;11.50;1.00
2967;DHT22;1493;51.496;7.210;2023-04-24T00:31:30;11.40;1.00
2967;DHT22;1493;51.496;7.210;2023-04-24T00:33:57;11.40;1.00
2967;DHT22;1493;51.496;7.210;2023-04-24T00:36:24;11.30;1.00
2967;DHT22;1493;51.496;7.210;2023-04-24T00:38:52;11.30;1.00
2967;DHT22;1493;51.496;7.210;2023-04-24T00:41:19;11.20;1.00
2967;DHT22;1493;51.496;7.210;2023-04-24T00:43:47;11.20;1.00
2967;DHT22;1493;51.496;7.210;2023-04-24T00:46:14;11.10;1.00
2967;DHT22;1493;51.496;7.210;2023-04-24T00:48:43;11.00;1.00
2967;DHT22;1493;51.496;7.210;2023-04-24T00:51:10;11.00;1.00
2967;DHT22;1493;51.496;7.210;2023-04-24T00:53:37;11.00;1.00
2967;DHT22;1493;51.496;7.210;2023-04-24T00:56:04;11.00;1.00
2967;DHT22;1493;51.496;7.210;2023-04-24T00:58:32;11.00;1.00
2967;DHT22;1493;51.496;7.210;2023-04-24T01:01:00;10.90;1.00
2967;DHT22;1493;51.496;7.210;2023-04-24T01:03:29;10.90;1.00
2967;DHT22;1493;51.496;7.210;2023-04-24T01:05:57;10.80;1.00
2967;DHT22;1493;51.496;7.210;2023-04-24T01:08:24;10.80;1.00
2967;DHT22;1493;51.496;7.210;2023-04-24T01:10:53;10.80;1.00
2967;DHT22;1493;51.496;7.210;2023-04-24T01:13:19;10.70;1.00
2967;DHT22;1493;51.496;7.210;2023-04-24T01:15:47;10.70;1.00
2967;DHT22;1493;51.496;7.210;2023-04-24T01:18:15;10.60;1.00
2967;DHT22;1493;51.496;7.210;2023-04-24T01:20:44;10.60;1.00
2967;DHT22;1493;51.496;7.210;2023-04-24T01:23:13;10.60;1.00
2967;DHT22;1493;51.496;7.210;2023-04-24T01:25:40;10.60;1.00
2967;DHT22;1493;51.496;7.210;2023-04-24T01:28:07;10.70;1.00
2967;DHT22;1493;51.496;7.210;2023-04-24T01:30:34;10.70;1.00
2967;DHT22;1493;51.496;7.210;2023-04-24T01:33:02;10.80;1.00
2967;DHT22;1493;51.496;7.210;2023-04-24T01:35:29;10.90;1.00
2967;DHT22;1493;51.496;7.210;2023-04-24T01:37:56;10.90;1.00
2967;DHT22;1493;51.496;7.210;2023-04-24T01:40:24;10.90;1.00
2967;DHT22;1493;51.496;7.210;2023-04-24T01:42:51;10.90;1.00
2967;DHT22;1493;51.496;7.210;2023-04-24T01:45:18;11.00;1.00
2967;DHT22;1493;51.496;7.210;2023-04-24T01:47:45;11.00;1.00
2967;DHT22;1493;51.496;7.210;2023-04-24T01:50:12;10.90;1.00
2967;DHT22;1493;51.496;7.210;2023-04-24T01:52:39;10.70;1.00
2967;DHT22;1493;51.496;7.210;2023-04-24T01:55:06;10.70;1.00
2967;DHT22;1493;51.496;7.210;2023-04-24T01:57:35;10.60;1.00
2967;DHT22;1493;51.496;7.210;2023-04-24T02:00:03;10.50;1.00
2967;DHT22;1493;51.496;7.210;2023-04-24T02:02:31;10.50;1.00
2967;DHT22;1493;51.496;7.210;2023-04-24T02:04:58;10.40;1.00
2967;DHT22;1493;51.496;7.210;2023-04-24T02:07:25;10.40;1.00
2967;DHT22;1493;51.496;7.210;2023-04-24T02:09:52;10.30;1.00
2967;DHT22;1493;51.496;7.210;2023-04-24T02:12:18;10.20;1.00
2967;DHT22;1493;51.496;7.210;2023-04-24T02:14:47;10.10;1.00
2967;DHT22;1493;51.496;7.210;2023-04-24T02:17:17;10.10;1.00
2967;DHT22;1493;51.496;7.210;2023-04-24T02:19:44;10.00;1.00
2967;DHT22;1493;51.496;7.210;2023-04-24T02:22:11;10.00;1.00
2967;DHT22;1493;51.496;7.210;2023-04-24T02:24:38;9.90;1.00
2967;DHT22;1493;51.496;7.210;2023-04-24T02:27:05;9.90;1.00
2967;DHT22;1493;51.496;7.210;2023-04-24T02:29:32;9.80;1.00
2967;DHT22;1493;51.496;7.210;2023-04-24T02:32:00;9.80;1.00
2967;DHT22;1493;51.496;7.210;2023-04-24T02:34:27;9.70;6.20
2967;DHT22;1493;51.496;7.210;2023-04-24T02:36:54;9.70;8.70
2967;DHT22;1493;51.496;7.210;2023-04-24T02:39:20;9.70;1.00
2967;DHT22;1493;51.496;7.210;2023-04-24T02:41:47;9.70;13.30
2967;DHT22;1493;51.496;7.210;2023-04-24T02:44:14;9.80;1.00
2967;DHT22;1493;51.496;7.210;2023-04-24T02:46:42;9.70;1.00
2967;DHT22;1493;51.496;7.210;2023-04-24T02:49:11;9.70;8.70
2967;DHT22;1493;51.496;7.210;2023-04-24T02:51:37;9.70;2.60
2967;DHT22;1493;51.496;7.210;2023-04-24T02:54:06;9.70;13.60
2967;DHT22;1493;51.496;7.210;2023-04-24T02:56:33;9.70;23.20
2967;DHT22;1493;51.496;7.210;2023-04-24T02:59:00;9.70;13.30
2967;DHT22;1493;51.496;7.210;2023-04-24T03:01:27;9.70;28.80
2967;DHT22;1493;51.496;7.210;2023-04-24T03:03:54;9.80;25.40
2967;DHT22;1493;51.496;7.210;2023-04-24T03:06:22;9.90;1.20
2967;DHT22;1493;51.496;7.210;2023-04-24T03:08:48;10.00;1.00
2967;DHT22;1493;51.496;7.210;2023-04-24T03:11:15;10.00;12.40
2967;DHT22;1493;51.496;7.210;2023-04-24T03:13:42;10.00;1.00
2967;DHT22;1493;51.496;7.210;2023-04-24T03:16:09;10.10;1.00
2967;DHT22;1493;51.496;7.210;2023-04-24T03:18:36;10.20;1.00
2967;DHT22;1493;51.496;7.210;2023-04-24T03:21:03;10.30;1.00
2967;DHT22;1493;51.496;7.210;2023-04-24T03:23:31;10.30;1.00
2967;DHT22;1493;51.496;7.210;2023-04-24T03:25:58;10.40;1.00
2967;DHT22;1493;51.496;7.210;2023-04-24T03:28:25;10.40;1.00
2967;DHT22;1493;51.496;7.210;2023-04-24T03:30:52;10.50;1.00
2967;DHT22;1493;51.496;7.210;2023-04-24T03:33:18;10.50;1.00
2967;DHT22;1493;51.496;7.210;2023-04-24T03:35:45;10.40;1.00
2967;DHT22;1493;51.496;7.210;2023-04-24T03:38:12;10.40;1.00
2967;DHT22;1493;51.496;7.210;2023-04-24T03:40:40;10.40;1.00
2967;DHT22;1493;51.496;7.210;2023-04-24T03:43:07;10.40;1.00
2967;DHT22;1493;51.496;7.210;2023-04-24T03:45:34;10.40;1.00
2967;DHT22;1493;51.496;7.210;2023-04-24T03:48:01;10.50;1.00
2967;DHT22;1493;51.496;7.210;2023-04-24T03:50:27;10.50;1.00
2967;DHT22;1493;51.496;7.210;2023-04-24T03:52:54;10.40;1.00
2967;DHT22;1493;51.496;7.210;2023-04-24T03:55:21;10.40;1.00
2967;DHT22;1493;51.496;7.210;2023-04-24T03:57:49;10.50;1.00
2967;DHT22;1493;51.496;7.210;2023-04-24T04:00:16;10.50;1.00
2967;DHT22;1493;51.496;7.210;2023-04-24T04:02:44;10.60;1.00
2967;DHT22;1493;51.496;7.210;2023-04-24T04:05:10;10.50;1.00
2967;DHT22;1493;51.496;7.210;2023-04-24T04:07:37;10.60;1.00
2967;DHT22;1493;51.496;7.210;2023-04-24T04:10:05;10.50;1.00
2967;DHT22;1493;51.496;7.210;2023-04-24T04:12:33;10.50;1.00
2967;DHT22;1493;51.496;7.210;2023-04-24T04:15:01;10.50;1.00
2967;DHT22;1493;51.496;7.210;2023-04-24T04:17:27;10.40;1.00
2967;DHT22;1493;51.496;7.210;2023-04-24T04:19:54;10.40;1.00
2967;DHT22;1493;51.496;7.210;2023-04-24T04:22:21;10.40;1.00
2967;DHT22;1493;51.496;7.210;2023-04-24T04:24:48;10.40;1.00
2967;DHT22;1493;51.496;7.210;2023-04-24T04:27:16;10.40;1.00
2967;DHT22;1493;51.496;7.210;2023-04-24T04:29:44;10.40;1.00
2967;DHT22;1493;51.496;7.210;2023-04-24T04:32:12;10.40;1.00
2967;DHT22;1493;51.496;7.210;2023-04-24T04:34:39;10.50;1.00
2967;DHT22;1493;51.496;7.210;2023-04-24T04:37:06;10.50;1.00
2967;DHT22;1493;51.496;7.210;2023-04-24T04:39:32;10.50;1.00
2967;DHT22;1493;51.496;7.210;2023-04-24T04:41:59;10.50;1.00
2967;DHT22;1493;51.496;7.210;2023-04-24T04:44:26;10.50;1.00
2967;DHT22;1493;51.496;7.210;2023-04-24T04:46:54;10.60;1.00
2967;DHT22;1493;51.496;7.210;2023-04-24T04:49:23;10.50;1.00
2967;DHT22;1493;51.496;7.210;2023-04-24T04:51:50;10.50;1.00
2967;DHT22;1493;51.496;7.210;2023-04-24T04:54:17;10.50;1.00
2967;DHT22;1493;51.496;7.210;2023-04-24T04:56:44;10.60;1.00
2967;DHT22;1493;51.496;7.210;2023-04-24T04:59:11;10.50;1.00
2967;DHT22;1493;51.496;7.210;2023-04-24T05:01:38;10.50;1.00
2967;DHT22;1493;51.496;7.210;2023-04-24T05:04:05;10.60;1.00
2967;DHT22;1493;51.496;7.210;2023-04-24T05:06:33;10.60;1.00
2967;DHT22;1493;51.496;7.210;2023-04-24T05:09:00;10.50;1.00
2967;DHT22;1493;51.496;7.210;2023-04-24T05:11:28;10.50;1.00
2967;DHT22;1493;51.496;7.210;2023-04-24T05:13:55;10.50;1.00
2967;DHT22;1493;51.496;7.210;2023-04-24T05:16:22;10.50;1.00
2967;DHT22;1493;51.496;7.210;2023-04-24T05:18:49;10.60;1.00
2967;DHT22;1493;51.496;7.210;2023-04-24T05:21:16;10.60;1.00
2967;DHT22;1493;51.496;7.210;2023-04-24T05:23:44;10.70;1.00
2967;DHT22;1493;51.496;7.210;2023-04-24T05:26:11;10.70;1.00
2967;DHT22;1493;51.496;7.210;2023-04-24T05:28:38;10.70;1.00
2967;DHT22;1493;51.496;7.210;2023-04-24T05:31:04;10.70;1.00
2967;DHT22;1493;51.496;7.210;2023-04-24T05:33:31;10.60;1.00
2967;DHT22;1493;51.496;7.210;2023-04-24T05:35:58;10.60;1.00
2967;DHT22;1493;51.496;7.210;2023-04-24T05:38:25;10.60;1.00
2967;DHT22;1493;51.496;7.210;2023-04-24T05:40:53;10.60;1.00
2967;DHT22;1493;51.496;7.210;2023-04-24T05:43:20;10.50;1.00
2967;DHT22;1493;51.496;7.210;2023-04-24T05:45:47;10.40;1.00
2967;DHT22;1493;51.496;7.210;2023-04-24T05:48:14;10.30;1.00
2967;DHT22;1493;51.496;7.210;2023-04-24T05:50:42;10.10;44.80
2967;DHT22;1493;51.496;7.210;2023-04-24T05:53:08;10.00;72.40
2967;DHT22;1493;51.496;7.210;2023-04-24T05:55:36;9.80;99.90
2967;DHT22;1493;51.496;7.210;2023-04-24T05:58:04;9.80;99.90
2967;DHT22;1493;51.496;7.210;2023-04-24T06:00:31;9.80;99.90
2967;DHT22;1493;51.496;7.210;2023-04-24T06:03:00;9.80;99.90
2967;DHT22;1493;51.496;7.210;2023-04-24T06:05:28;9.70;99.90
2967;DHT22;1493;51.496;7.210;2023-04-24T06:07:55;9.70;99.90
2967;DHT22;1493;51.496;7.210;2023-04-24T06:10:22;9.60;99.90
2967;DHT22;1493;51.496;7.210;2023-04-24T06:12:49;9.60;99.90
2967;DHT22;1493;51.496;7.210;2023-04-24T06:15:17;9.60;99.90
2967;DHT22;1493;51.496;7.210;2023-04-24T06:17:45;9.70;99.90
2967;DHT22;1493;51.496;7.210;2023-04-24T06:20:11;9.70;99.90
2967;DHT22;1493;51.496;7.210;2023-04-24T06:22:38;9.70;99.90
2967;DHT22;1493;51.496;7.210;2023-04-24T06:25:06;9.80;91.50
2967;DHT22;1493;51.496;7.210;2023-04-24T06:27:33;9.80;78.50
2967;DHT22;1493;51.496;7.210;2023-04-24T06:30:00;9.80;95.70
2967;DHT22;1493;51.496;7.210;2023-04-24T06:32:29;9.80;99.90
2967;DHT22;1493;51.496;7.210;2023-04-24T06:34:56;9.90;88.30
2967;DHT22;1493;51.496;7.210;2023-04-24T06:37:23;9.90;77.50
2967;DHT22;1493;51.496;7.210;2023-04-24T06:39:50;10.00;76.00
2967;DHT22;1493;51.496;7.210;2023-04-24T06:42:17;10.10;42.90
2967;DHT22;1493;51.496;7.210;2023-04-24T06:44:46;10.00;89.00
2967;DHT22;1493;51.496;7.210;2023-04-24T06:47:13;9.90;69.60
2967;DHT22;1493;51.496;7.210;2023-04-24T06:49:41;10.00;95.90
2967;DHT22;1493;51.496;7.210;2023-04-24T06:52:08;10.10;99.80
2967;DHT22;1493;51.496;7.210;2023-04-24T06:54:35;10.20;97.70
2967;DHT22;1493;51.496;7.210;2023-04-24T06:57:02;10.30;94.20
2967;DHT22;1493;51.496;7.210;2023-04-24T06:59:29;10.50;82.20
2967;DHT22;1493;51.496;7.210;2023-04-24T07:01:56;10.30;99.30
2967;DHT22;1493;51.496;7.210;2023-04-24T07:04:23;10.20;99.90
2967;DHT22;1493;51.496;7.210;2023-04-24T07:06:52;10.20;99.90
2967;DHT22;1493;51.496;7.210;2023-04-24T07:09:21;10.10;99.90
2967;DHT22;1493;51.496;7.210;2023-04-24T07:11:54;10.00;99.90
2967;DHT22;1493;51.496;7.210;2023-04-24T07:14:22;9.90;99.90
2967;DHT22;1493;51.496;7.210;2023-04-24T07:16:49;10.20;99.90
2967;DHT22;1493;51.496;7.210;2023-04-24T07:19:16;10.20;99.90
2967;DHT22;1493;51.496;7.210;2023-04-24T07:21:42;10.20;99.90
2967;DHT22;1493;51.496;7.210;2023-04-24T07:24:11;10.10;99.90
2967;DHT22;1493;51.496;7.210;2023-04-24T07:26:38;10.00;99.90
2967;DHT22;1493;51.496;7.210;2023-04-24T07:29:05;10.10;99.90
2967;DHT22;1493;51.496;7.210;2023-04-24T07:31:32;10.10;67.30
2967;DHT22;1493;51.496;7.210;2023-04-24T07:33:59;10.20;99.90
2967;DHT22;1493;51.496;7.210;2023-04-24T07:36:26;10.20;95.60
2967;DHT22;1493;51.496;7.210;2023-04-24T07:38:54;10.30;71.10
2967;DHT22;1493;51.496;7.210;2023-04-24T07:41:22;10.40;47.30
2967;DHT22;1493;51.496;7.210;2023-04-24T07:43:49;10.50;49.30
2967;DHT22;1493;51.496;7.210;2023-04-24T07:46:16;10.30;42.10
2967;DHT22;1493;51.496;7.210;2023-04-24T07:48:43;10.10;43.60
2967;DHT22;1493;51.496;7.210;2023-04-24T07:51:11;10.20;52.70
2967;DHT22;1493;51.496;7.210;2023-04-24T07:53:38;10.30;52.30
2967;DHT22;1493;51.496;7.210;2023-04-24T07:56:05;10.30;50.90
2967;DHT22;1493;51.496;7.210;2023-04-24T07:58:33;10.30;21.70
2967;DHT22;1493;51.496;7.210;2023-04-24T08:01:00;10.40;37.80
2967;DHT22;1493;51.496;7.210;2023-04-24T08:03:27;10.50;67.80
2967;DHT22;1493;51.496;7.210;2023-04-24T08:05:54;10.70;1.00
2967;DHT22;1493;51.496;7.210;2023-04-24T08:08:22;10.90;1.00
2967;DHT22;1493;51.496;7.210;2023-04-24T08:10:49;11.00;1.00
2967;DHT22;1493;51.496;7.210;2023-04-24T08:13:16;10.90;1.00
2967;DHT22;1493;51.496;7.210;2023-04-24T08:15:44;10.80;1.00
2967;DHT22;1493;51.496;7.210;2023-04-24T08:18:11;10.60;1.00
2967;DHT22;1493;51.496;7.210;2023-04-24T08:20:39;10.30;1.00
2967;DHT22;1493;51.496;7.210;2023-04-24T08:23:06;10.10;1.00
2967;DHT22;1493;51.496;7.210;2023-04-24T08:25:32;10.10;1.00
2967;DHT22;1493;51.496;7.210;2023-04-24T08:28:01;10.10;1.00
2967;DHT22;1493;51.496;7.210;2023-04-24T08:30:28;10.10;20.40
2967;DHT22;1493;51.496;7.210;2023-04-24T08:32:57;9.90;23.60
2967;DHT22;1493;51.496;7.210;2023-04-24T08:35:23;9.80;16.70
2967;DHT22;1493;51.496;7.210;2023-04-24T08:37:52;9.80;64.10
2967;DHT22;1493;51.496;7.210;2023-04-24T08:40:24;9.90;83.30
2967;DHT22;1493;51.496;7.210;2023-04-24T08:42:54;9.70;61.40
2967;DHT22;1493;51.496;7.210;2023-04-24T08:45:21;9.60;99.90
2967;DHT22;1493;51.496;7.210;2023-04-24T08:47:48;9.40;99.90
2967;DHT22;1493;51.496;7.210;2023-04-24T08:50:17;9.30;99.90
2967;DHT22;1493;51.496;7.210;2023-04-24T08:52:44;9.20;99.90
2967;DHT22;1493;51.496;7.210;2023-04-24T08:55:11;9.20;99.90
2967;DHT22;1493;51.496;7.210;2023-04-24T08:57:37;9.20;99.90
2967;DHT22;1493;51.496;7.210;2023-04-24T09:00:06;9.20;99.90
2967;DHT22;1493;51.496;7.210;2023-04-24T09:02:34;9.10;99.90
2967;DHT22;1493;51.496;7.210;2023-04-24T09:05:02;9.20;99.90
2967;DHT22;1493;51.496;7.210;2023-04-24T09:07:34;9.20;99.90
2967;DHT22;1493;51.496;7.210;2023-04-24T09:10:02;9.20;99.90
2967;DHT22;1493;51.496;7.210;2023-04-24T09:12:29;9.10;99.90
2967;DHT22;1493;51.496;7.210;2023-04-24T09:14:57;9.20;99.90
2967;DHT22;1493;51.496;7.210;2023-04-24T09:17:24;9.20;99.90
2967;DHT22;1493;51.496;7.210;2023-04-24T09:19:53;9.30;99.90
2967;DHT22;1493;51.496;7.210;2023-04-24T09:22:21;9.40;99.90
2967;DHT22;1493;51.496;7.210;2023-04-24T09:24:59;9.50;99.90
2967;DHT22;1493;51.496;7.210;2023-04-24T09:27:28;9.60;99.90
2967;DHT22;1493;51.496;7.210;2023-04-24T09:29:55;9.80;99.90
2967;DHT22;1493;51.496;7.210;2023-04-24T09:32:24;9.90;99.90
2967;DHT22;1493;51.496;7.210;2023-04-24T09:35:06;9.90;99.90
2967;DHT22;1493;51.496;7.210;2023-04-24T09:37:35;9.80;99.90
2967;DHT22;1493;51.496;7.210;2023-04-24T09:40:11;9.80;99.90
2967;DHT22;1493;51.496;7.210;2023-04-24T09:42:38;9.80;99.90
2967;DHT22;1493;51.496;7.210;2023-04-24T09:45:09;9.80;99.90
2967;DHT22;1493;51.496;7.210;2023-04-24T09:47:37;9.90;99.90
2967;DHT22;1493;51.496;7.210;2023-04-24T09:50:10;9.90;99.90
2967;DHT22;1493;51.496;7.210;2023-04-24T09:52:40;9.80;99.90
2967;DHT22;1493;51.496;7.210;2023-04-24T09:55:16;9.60;99.90
2967;DHT22;1493;51.496;7.210;2023-04-24T09:57:50;9.60;99.90
2967;DHT22;1493;51.496;7.210;2023-04-24T10:00:20;9.60;99.90
2967;DHT22;1493;51.496;7.210;2023-04-24T10:02:50;9.60;99.90
2967;DHT22;1493;51.496;7.210;2023-04-24T10:05:18;9.50;99.90
2967;DHT22;1493;51.496;7.210;2023-04-24T10:07:45;9.50;99.90
2967;DHT22;1493;51.496;7.210;2023-04-24T10:10:13;9.40;99.90
2967;DHT22;1493;51.496;7.210;2023-04-24T10:12:40;9.40;99.90
2967;DHT22;1493;51.496;7.210;2023-04-24T10:15:10;9.40;99.90
2967;DHT22;1493;51.496;7.210;2023-04-24T10:17:38;9.40;99.90
2967;DHT22;1493;51.496;7.210;2023-04-24T10:20:06;9.30;99.90
2967;DHT22;1493;51.496;7.210;2023-04-24T10:22:34;9.20;99.90
2967;DHT22;1493;51.496;7.210;2023-04-24T10:25:03;9.30;99.90
2967;DHT22;1493;51.496;7.210;2023-04-24T10:27:32;9.20;99.90
2967;DHT22;1493;51.496;7.210;2023-04-24T10:30:01;9.10;99.90
2967;DHT22;1493;51.496;7.210;2023-04-24T10:32:28;9.20;99.90
2967;DHT22;1493;51.496;7.210;2023-04-24T10:34:55;9.20;99.90
2967;DHT22;1493;51.496;7.210;2023-04-24T10:37:23;9.30;99.90
2967;DHT22;1493;51.496;7.210;2023-04-24T10:39:50;9.30;99.90
2967;DHT22;1493;51.496;7.210;2023-04-24T10:42:20;9.30;99.90
2967;DHT22;1493;51.496;7.210;2023-04-24T10:44:48;9.50;99.90
2967;DHT22;1493;51.496;7.210;2023-04-24T10:47:15;9.70;99.90
2967;DHT22;1493;51.496;7.210;2023-04-24T10:49:42;9.70;99.90
2967;DHT22;1493;51.496;7.210;2023-04-24T10:52:09;9.60;99.90
2967;DHT22;1493;51.496;7.210;2023-04-24T10:54:42;9.60;99.90
2967;DHT22;1493;51.496;7.210;2023-04-24T10:57:27;9.70;99.90
2967;DHT22;1493;51.496;7.210;2023-04-24T11:00:19;9.80;99.90
2967;DHT22;1493;51.496;7.210;2023-04-24T11:02:47;9.90;99.90
2967;DHT22;1493;51.496;7.210;2023-04-24T11:05:19;9.90;99.90
2967;DHT22;1493;51.496;7.210;2023-04-24T11:08:11;9.90;99.90
2967;DHT22;1493;51.496;7.210;2023-04-24T11:10:39;10.00;99.90
2967;DHT22;1493;51.496;7.210;2023-04-24T11:13:06;10.10;99.90
2967;DHT22;1493;51.496;7.210;2023-04-24T11:15:35;10.20;99.90
2967;DHT22;1493;51.496;7.210;2023-04-24T11:18:02;10.20;99.90
2967;DHT22;1493;51.496;7.210;2023-04-24T11:20:29;10.40;99.90
2967;DHT22;1493;51.496;7.210;2023-04-24T11:23:03;10.30;99.90
2967;DHT22;1493;51.496;7.210;2023-04-24T11:25:32;10.20;99.90
2967;DHT22;1493;51.496;7.210;2023-04-24T11:28:08;10.10;99.90
2967;DHT22;1493;51.496;7.210;2023-04-24T11:30:42;10.00;99.90
2967;DHT22;1493;51.496;7.210;2023-04-24T11:33:09;10.20;99.90
2967;DHT22;1493;51.496;7.210;2023-04-24T11:35:39;10.30;99.90
2967;DHT22;1493;51.496;7.210;2023-04-24T11:38:06;10.50;99.90
2967;DHT22;1493;51.496;7.210;2023-04-24T11:40:34;11.10;99.90
2967;DHT22;1493;51.496;7.210;2023-04-24T11:43:01;11.40;99.90
2967;DHT22;1493;51.496;7.210;2023-04-24T11:45:29;12.10;99.90
2967;DHT22;1493;51.496;7.210;2023-04-24T11:48:00;12.60;99.90
2967;DHT22;1493;51.496;7.210;2023-04-24T11:50:29;13.10;45.40
2967;DHT22;1493;51.496;7.210;2023-04-24T11:52:56;12.70;1.00
2967;DHT22;1493;51.496;7.210;2023-04-24T11:55:24;12.40;1.00
2967;DHT22;1493;51.496;7.210;2023-04-24T11:57:54;12.00;1.00
2967;DHT22;1493;51.496;7.210;2023-04-24T12:00:23;11.40;4.00
2967;DHT22;1493;51.496;7.210;2023-04-24T12:03:06;11.10;99.60
2967;DHT22;1493;51.496;7.210;2023-04-24T12:05:33;10.90;99.90
2967;DHT22;1493;51.496;7.210;2023-04-24T12:08:00;10.50;99.90
2967;DHT22;1493;51.496;7.210;2023-04-24T12:10:29;10.50;99.90
2967;DHT22;1493;51.496;7.210;2023-04-24T12:12:57;10.40;88.50
2967;DHT22;1493;51.496;7.210;2023-04-24T12:15:24;10.40;94.70
2967;DHT22;1493;51.496;7.210;2023-04-24T12:17:52;10.80;99.90
2967;DHT22;1493;51.496;7.210;2023-04-24T12:20:25;11.20;97.80
2967;DHT22;1493;51.496;7.210;2023-04-24T12:22:53;11.80;5.70
2967;DHT22;1493;51.496;7.210;2023-04-24T12:25:22;12.70;7.50
2967;DHT22;1493;51.496;7.210;2023-04-24T12:27:53;14.00;1.00
2967;DHT22;1493;51.496;7.210;2023-04-24T12:30:20;14.90;1.00
2967;DHT22;1493;51.496;7.210;2023-04-24T12:32:48;14.60;99.90
2967;DHT22;1493;51.496;7.210;2023-04-24T12:35:19;14.20;1.00
2967;DHT22;1493;51.496;7.210;2023-04-24T12:37:48;14.00;35.50
2967;DHT22;1493;51.496;7.210;2023-04-24T12:40:17;13.70;50.30
2967;DHT22;1493;51.496;7.210;2023-04-24T12:42:46;13.30;99.90
2967;DHT22;1493;51.496;7.210;2023-04-24T12:45:13;12.90;99.90
2967;DHT22;1493;51.496;7.210;2023-04-24T12:47:42;12.60;1.00
2967;DHT22;1493;51.496;7.210;2023-04-24T12:50:09;12.20;1.00
2967;DHT22;1493;51.496;7.210;2023-04-24T12:52:37;11.90;1.00
2967;DHT22;1493;51.496;7.210;2023-04-24T12:55:07;11.70;1.00
2967;DHT22;1493;51.496;7.210;2023-04-24T12:57:35;11.20;1.00
2967;DHT22;1493;51.496;7.210;2023-04-24T13:00:03;11.10;1.00
2967;DHT22;1493;51.496;7.210;2023-04-24T13:02:33;11.10;1.00
2967;DHT22;1493;51.496;7.210;2023-04-24T13:05:00;11.10;1.00
2967;DHT22;1493;51.496;7.210;2023-04-24T13:07:27;11.40;1.00
2967;DHT22;1493;51.496;7.210;2023-04-24T13:09:55;11.60;1.00
2967;DHT22;1493;51.496;7.210;2023-04-24T13:12:23;12.00;99.90
2967;DHT22;1493;51.496;7.210;2023-04-24T13:14:51;12.70;1.00
2967;DHT22;1493;51.496;7.210;2023-04-24T13:17:17;13.50;99.90
2967;DHT22;1493;51.496;7.210;2023-04-24T13:19:44;13.70;1.00
2967;DHT22;1493;51.496;7.210;2023-04-24T13:22:12;14.10;55.90
2967;DHT22;1493;51.496;7.210;2023-04-24T13:24:39;14.00;99.90
2967;DHT22;1493;51.496;7.210;2023-04-24T13:27:07;13.90;93.60
2967;DHT22;1493;51.496;7.210;2023-04-24T13:29:35;13.60;99.90
2967;DHT22;1493;51.496;7.210;2023-04-24T13:32:02;13.10;99.90
2967;DHT22;1493;51.496;7.210;2023-04-24T13:34:29;12.90;1.00
2967;DHT22;1493;51.496;7.210;2023-04-24T13:36:57;13.00;27.90
2967;DHT22;1493;51.496;7.210;2023-04-24T13:39:24;12.90;99.90
2967;DHT22;1493;51.496;7.210;2023-04-24T13:41:51;12.40;99.90
2967;DHT22;1493;51.496;7.210;2023-04-24T13:44:20;12.20;1.00
2967;DHT22;1493;51.496;7.210;2023-04-24T13:46:49;12.00;1.00
2967;DHT22;1493;51.496;7.210;2023-04-24T13:49:17;11.80;99.90
2967;DHT22;1493;51.496;7.210;2023-04-24T13:51:44;11.70;1.00
2967;DHT22;1493;51.496;7.210;2023-04-24T13:54:12;11.80;1.60
2967;DHT22;1493;51.496;7.210;2023-04-24T13:56:39;11.90;1.00
2967;DHT22;1493;51.496;7.210;2023-04-24T13:59:06;12.10;99.90
2967;DHT22;1493;51.496;7.210;2023-04-24T14:01:34;12.00;10.80
2967;DHT22;1493;51.496;7.210;2023-04-24T14:04:02;11.90;99.90
2967;DHT22;1493;51.496;7.210;2023-04-24T14:06:29;12.00;1.00
2967;DHT22;1493;51.496;7.210;2023-04-24T14:08:57;11.70;1.00
2967;DHT22;1493;51.496;7.210;2023-04-24T14:11:23;11.90;1.00
2967;DHT22;1493;51.496;7.210;2023-04-24T14:13:53;12.50;99.90
2967;DHT22;1493;51.496;7.210;2023-04-24T14:16:21;13.20;99.90
2967;DHT22;1493;51.496;7.210;2023-04-24T14:18:48;14.00;99.90
2967;DHT22;1493;51.496;7.210;2023-04-24T14:21:17;14.50;1.00
2967;DHT22;1493;51.496;7.210;2023-04-24T14:23:43;14.80;1.00
2967;DHT22;1493;51.496;7.210;2023-04-24T14:26:11;14.50;1.00
2967;DHT22;1493;51.496;7.210;2023-04-24T14:28:37;14.60;1.00
2967;DHT22;1493;51.496;7.210;2023-04-24T14:31:04;14.30;1.00
2967;DHT22;1493;51.496;7.210;2023-04-24T14:33:31;14.00;1.00
2967;DHT22;1493;51.496;7.210;2023-04-24T14:35:58;13.70;1.00
2967;DHT22;1493;51.496;7.210;2023-04-24T14:38:26;13.60;1.00
2967;DHT22;1493;51.496;7.210;2023-04-24T14:40:53;13.10;1.00
2967;DHT22;1493;51.496;7.210;2023-04-24T14:43:20;12.80;1.00
2967;DHT22;1493;51.496;7.210;2023-04-24T14:45:47;12.60;1.00
2967;DHT22;1493;51.496;7.210;2023-04-24T14:48:14;12.40;1.00
2967;DHT22;1493;51.496;7.210;2023-04-24T14:50:41;12.20;89.40
2967;DHT22;1493;51.496;7.210;2023-04-24T14:53:08;12.10;99.90
2967;DHT22;1493;51.496;7.210;2023-04-24T14:55:37;12.00;1.00
2967;DHT22;1493;51.496;7.210;2023-04-24T14:58:04;11.60;1.00
2967;DHT22;1493;51.496;7.210;2023-04-24T15:00:31;11.40;99.90
2967;DHT22;1493;51.496;7.210;2023-04-24T15:02:58;11.20;99.90
2967;DHT22;1493;51.496;7.210;2023-04-24T15:05:25;11.10;99.90
2967;DHT22;1493;51.496;7.210;2023-04-24T15:07:52;11.00;1.00
2967;DHT22;1493;51.496;7.210;2023-04-24T15:10:19;10.90;1.00
2967;DHT22;1493;51.496;7.210;2023-04-24T15:12:49;10.80;99.90
2967;DHT22;1493;51.496;7.210;2023-04-24T15:15:16;10.70;99.90
2967;DHT22;1493;51.496;7.210;2023-04-24T15:17:43;10.60;1.00
2967;DHT22;1493;51.496;7.210;2023-04-24T15:20:10;10.60;1.00
2967;DHT22;1493;51.496;7.210;2023-04-24T15:22:37;11.60;78.30
2967;DHT22;1493;51.496;7.210;2023-04-24T15:25:04;13.80;1.00
2967;DHT22;1493;51.496;7.210;2023-04-24T15:27:40;14.20;28.20
2967;DHT22;1493;51.496;7.210;2023-04-24T15:30:09;13.50;1.00
2967;DHT22;1493;51.496;7.210;2023-04-24T15:32:37;13.30;77.00
2967;DHT22;1493;51.496;7.210;2023-04-24T15:35:05;13.30;99.90
2967;DHT22;1493;51.496;7.210;2023-04-24T15:37:32;13.40;30.80
2967;DHT22;1493;51.496;7.210;2023-04-24T15:39:59;14.00;1.00
2967;DHT22;1493;51.496;7.210;2023-04-24T15:42:26;14.30;99.90
2967;DHT22;1493;51.496;7.210;2023-04-24T15:44:52;14.50;99.90
2967;DHT22;1493;51.496;7.210;2023-04-24T15:47:21;14.40;1.00
2967;DHT22;1493;51.496;7.210;2023-04-24T15:49:48;14.30;1.00
2967;DHT22;1493;51.496;7.210;2023-04-24T15:52:15;14.30;1.00
2967;DHT22;1493;51.496;7.210;2023-04-24T15:54:42;14.30;1.00
2967;DHT22;1493;51.496;7.210;2023-04-24T15:57:08;14.50;1.00
2967;DHT22;1493;51.496;7.210;2023-04-24T15:59:37;14.10;1.00
2967;DHT22;1493;51.496;7.210;2023-04-24T16:02:04;14.00;1.00
2967;DHT22;1493;51.496;7.210;2023-04-24T16:04:32;13.70;99.90
2967;DHT22;1493;51.496;7.210;2023-04-24T16:07:00;13.90;99.90
2967;DHT22;1493;51.496;7.210;2023-04-24T16:09:27;13.60;1.00
2967;DHT22;1493;51.496;7.210;2023-04-24T16:11:54;13.50;99.90
2967;DHT22;1493;51.496;7.210;2023-04-24T16:14:21;13.50;99.90
2967;DHT22;1493;51.496;7.210;2023-04-24T16:16:47;13.50;1.00
2967;DHT22;1493;51.496;7.210;2023-04-24T16:19:15;13.20;99.90